UAL102 CYTZ-KMDW
Flight info
| Callsign | UAL102 |
|---|---|
| Flight time | N/A |
| Altitude | 18000 |
| Route | PERLO4 DERLO DCT QWERI DCT BAGEL PANGG7 |
| Aircraft | CRJ7/M-SDFGIRWY/S |
Departure
| Time | N/A |
|---|---|
| Airport | Billy Bishop Toronto City Airport (CYTZ) |
Arrival
| Time | 2026-04-30 14:51 |
|---|---|
| Airport | Chicago Midway International Airport (KMDW) |
| Time | Latitude | Longitude | Altitude | Speed | Heading |
|---|---|---|---|---|---|
| 2026-04-30 13:44 | 43.17060 | -80.41359 | 16729 ft | 337 kts | 257° |
| 2026-04-30 13:45 | 43.16123 | -80.47632 | 17121 ft | 335 kts | 257° |
| 2026-04-30 13:45 | 43.15656 | -80.50747 | 17319 ft | 334 kts | 257° |
| 2026-04-30 13:45 | 43.15193 | -80.53858 | 17517 ft | 333 kts | 257° |
| 2026-04-30 13:46 | 43.14728 | -80.56953 | 17713 ft | 331 kts | 257° |
| 2026-04-30 13:46 | 43.14265 | -80.60031 | 17909 ft | 330 kts | 257° |
| 2026-04-30 13:46 | 43.13802 | -80.63098 | 18106 ft | 328 kts | 257° |
| 2026-04-30 13:46 | 43.13333 | -80.66147 | 18263 ft | 328 kts | 257° |
| 2026-04-30 13:47 | 43.12851 | -80.69220 | 18257 ft | 333 kts | 257° |
| 2026-04-30 13:47 | 43.12357 | -80.72332 | 18259 ft | 337 kts | 257° |
| 2026-04-30 13:47 | 43.11869 | -80.75486 | 18262 ft | 341 kts | 257° |
| 2026-04-30 13:47 | 43.11381 | -80.78677 | 18262 ft | 344 kts | 257° |
| 2026-04-30 13:48 | 43.10887 | -80.81932 | 18263 ft | 357 kts | 257° |
| 2026-04-30 13:48 | 43.10373 | -80.85318 | 18265 ft | 369 kts | 257° |
| 2026-04-30 13:48 | 43.09855 | -80.88713 | 18272 ft | 369 kts | 257° |
| 2026-04-30 13:48 | 43.09323 | -80.92190 | 18273 ft | 369 kts | 257° |
| 2026-04-30 13:49 | 43.08799 | -80.95576 | 18271 ft | 369 kts | 257° |
| 2026-04-30 13:49 | 43.08270 | -80.99002 | 18269 ft | 369 kts | 257° |
| 2026-04-30 13:49 | 43.07810 | -81.01973 | 18266 ft | 369 kts | 257° |
| 2026-04-30 13:49 | 43.07286 | -81.05358 | 18262 ft | 369 kts | 257° |
| 2026-04-30 13:50 | 43.06714 | -81.08821 | 18263 ft | 369 kts | 254° |
| 2026-04-30 13:50 | 43.04861 | -81.15353 | 18264 ft | 369 kts | 246° |
| 2026-04-30 13:50 | 43.03777 | -81.18527 | 18265 ft | 369 kts | 245° |
| 2026-04-30 13:51 | 43.02706 | -81.21661 | 18265 ft | 369 kts | 245° |
| 2026-04-30 13:51 | 43.01634 | -81.24846 | 18264 ft | 369 kts | 246° |
| 2026-04-30 13:51 | 43.00587 | -81.28042 | 18262 ft | 369 kts | 246° |
| 2026-04-30 13:51 | 42.99698 | -81.30775 | 18260 ft | 369 kts | 246° |
| 2026-04-30 13:52 | 42.98655 | -81.33973 | 18263 ft | 369 kts | 246° |
| 2026-04-30 13:52 | 42.97609 | -81.37166 | 18267 ft | 369 kts | 246° |
| 2026-04-30 13:52 | 42.96563 | -81.40362 | 18266 ft | 369 kts | 246° |
| 2026-04-30 13:52 | 42.95521 | -81.43561 | 18264 ft | 369 kts | 246° |
| 2026-04-30 13:53 | 42.94474 | -81.46754 | 18264 ft | 369 kts | 246° |
| 2026-04-30 13:53 | 42.93425 | -81.49945 | 18264 ft | 369 kts | 246° |
| 2026-04-30 13:53 | 42.92375 | -81.53136 | 18266 ft | 368 kts | 246° |
| 2026-04-30 13:53 | 42.91676 | -81.55269 | 18271 ft | 360 kts | 246° |
| 2026-04-30 13:54 | 42.90336 | -81.59336 | 18268 ft | 353 kts | 246° |
| 2026-04-30 13:54 | 42.89332 | -81.62381 | 18268 ft | 351 kts | 246° |
| 2026-04-30 13:54 | 42.88332 | -81.65412 | 18274 ft | 350 kts | 246° |
| 2026-04-30 13:54 | 42.87335 | -81.68425 | 18274 ft | 348 kts | 246° |
| 2026-04-30 13:55 | 42.86341 | -81.71431 | 18279 ft | 347 kts | 246° |
| 2026-04-30 13:55 | 42.85671 | -81.73452 | 18277 ft | 346 kts | 246° |
| 2026-04-30 13:55 | 42.84682 | -81.76437 | 18274 ft | 345 kts | 246° |
| 2026-04-30 13:55 | 42.83696 | -81.79414 | 18280 ft | 345 kts | 246° |
| 2026-04-30 13:56 | 42.82709 | -81.82382 | 18276 ft | 344 kts | 246° |
| 2026-04-30 13:56 | 42.81723 | -81.85345 | 18282 ft | 343 kts | 247° |
| 2026-04-30 13:56 | 42.80755 | -81.88266 | 18290 ft | 342 kts | 246° |
| 2026-04-30 13:56 | 42.79769 | -81.91215 | 18286 ft | 342 kts | 246° |
| 2026-04-30 13:57 | 42.78789 | -81.94158 | 18289 ft | 341 kts | 246° |
| 2026-04-30 13:57 | 42.77805 | -81.97098 | 18291 ft | 341 kts | 246° |
| 2026-04-30 13:57 | 42.76827 | -82.00029 | 18288 ft | 340 kts | 246° |
| 2026-04-30 13:57 | 42.75981 | -82.02552 | 18287 ft | 340 kts | 247° |
| 2026-04-30 13:58 | 42.75004 | -82.05476 | 18289 ft | 340 kts | 247° |
| 2026-04-30 13:58 | 42.73056 | -82.11276 | 18284 ft | 339 kts | 247° |
| 2026-04-30 13:58 | 42.72077 | -82.14190 | 18290 ft | 339 kts | 247° |
| 2026-04-30 13:59 | 42.71096 | -82.17104 | 18293 ft | 339 kts | 247° |
| 2026-04-30 13:59 | 42.70116 | -82.20013 | 18290 ft | 338 kts | 247° |
| 2026-04-30 13:59 | 42.69134 | -82.22921 | 18293 ft | 338 kts | 247° |
| 2026-04-30 13:59 | 42.68156 | -82.25829 | 18286 ft | 338 kts | 248° |
| 2026-04-30 14:00 | 42.67200 | -82.28749 | 18295 ft | 338 kts | 248° |
| 2026-04-30 14:00 | 42.65291 | -82.34583 | 18288 ft | 338 kts | 248° |
| 2026-04-30 14:00 | 42.64334 | -82.37497 | 18294 ft | 338 kts | 248° |
| 2026-04-30 14:01 | 42.63377 | -82.40413 | 18292 ft | 338 kts | 248° |
| 2026-04-30 14:01 | 42.62421 | -82.43329 | 18290 ft | 338 kts | 248° |
| 2026-04-30 14:01 | 42.61461 | -82.46241 | 18294 ft | 338 kts | 248° |
| 2026-04-30 14:01 | 42.60502 | -82.49154 | 18297 ft | 338 kts | 248° |
| 2026-04-30 14:02 | 42.59541 | -82.52066 | 18296 ft | 338 kts | 248° |
| 2026-04-30 14:02 | 42.58580 | -82.54971 | 18286 ft | 338 kts | 248° |
| 2026-04-30 14:02 | 42.57621 | -82.57876 | 18290 ft | 337 kts | 248° |
| 2026-04-30 14:02 | 42.56661 | -82.60781 | 18286 ft | 338 kts | 248° |
| 2026-04-30 14:03 | 42.55698 | -82.63684 | 18283 ft | 338 kts | 248° |
| 2026-04-30 14:03 | 42.54734 | -82.66590 | 18294 ft | 338 kts | 248° |
| 2026-04-30 14:03 | 42.53771 | -82.69499 | 18293 ft | 338 kts | 248° |
| 2026-04-30 14:03 | 42.52805 | -82.72404 | 18289 ft | 338 kts | 248° |
| 2026-04-30 14:04 | 42.51837 | -82.75312 | 18294 ft | 338 kts | 248° |
| 2026-04-30 14:04 | 42.50872 | -82.78214 | 18293 ft | 338 kts | 248° |
| 2026-04-30 14:04 | 42.49904 | -82.81113 | 18292 ft | 338 kts | 248° |
| 2026-04-30 14:04 | 42.48936 | -82.84013 | 18285 ft | 338 kts | 248° |
| 2026-04-30 14:05 | 42.47968 | -82.86919 | 18296 ft | 338 kts | 248° |
| 2026-04-30 14:05 | 42.47009 | -82.89780 | 18298 ft | 338 kts | 248° |
| 2026-04-30 14:05 | 42.46041 | -82.92677 | 18302 ft | 338 kts | 248° |
| 2026-04-30 14:05 | 42.45066 | -82.95587 | 18306 ft | 342 kts | 248° |
| 2026-04-30 14:06 | 42.44072 | -82.98541 | 18314 ft | 348 kts | 248° |
| 2026-04-30 14:06 | 42.42204 | -83.04119 | 18320 ft | 358 kts | 248° |
| 2026-04-30 14:07 | 42.40111 | -83.10321 | 18324 ft | 367 kts | 248° |
| 2026-04-30 14:07 | 42.39046 | -83.13479 | 18323 ft | 371 kts | 248° |
| 2026-04-30 14:07 | 42.37969 | -83.16667 | 18324 ft | 375 kts | 248° |
| 2026-04-30 14:08 | 42.35785 | -83.23124 | 18324 ft | 380 kts | 248° |
| 2026-04-30 14:08 | 42.34681 | -83.26384 | 18327 ft | 383 kts | 248° |
| 2026-04-30 14:08 | 42.32444 | -83.32976 | 18331 ft | 388 kts | 248° |
| 2026-04-30 14:09 | 42.31317 | -83.36290 | 18335 ft | 390 kts | 248° |
| 2026-04-30 14:09 | 42.30180 | -83.39625 | 18336 ft | 391 kts | 248° |
| 2026-04-30 14:09 | 42.27896 | -83.46321 | 18337 ft | 394 kts | 248° |
| 2026-04-30 14:10 | 42.26746 | -83.49688 | 18334 ft | 395 kts | 248° |
| 2026-04-30 14:10 | 42.25591 | -83.53063 | 18336 ft | 397 kts | 248° |
| 2026-04-30 14:10 | 42.24430 | -83.56446 | 18338 ft | 398 kts | 248° |
| 2026-04-30 14:10 | 42.23265 | -83.59840 | 18339 ft | 399 kts | 248° |
| 2026-04-30 14:11 | 42.22098 | -83.63238 | 18338 ft | 400 kts | 248° |
| 2026-04-30 14:11 | 42.20928 | -83.66642 | 18332 ft | 401 kts | 248° |
| 2026-04-30 14:11 | 42.19754 | -83.70054 | 18332 ft | 402 kts | 248° |
| 2026-04-30 14:11 | 42.18576 | -83.73470 | 18331 ft | 402 kts | 248° |
| 2026-04-30 14:12 | 42.17406 | -83.76861 | 18328 ft | 389 kts | 248° |
| 2026-04-30 14:12 | 42.16287 | -83.80102 | 18321 ft | 377 kts | 248° |
| 2026-04-30 14:12 | 42.15190 | -83.83273 | 18318 ft | 370 kts | 248° |
| 2026-04-30 14:12 | 42.14107 | -83.86390 | 18319 ft | 364 kts | 248° |
| 2026-04-30 14:13 | 42.13042 | -83.89461 | 18319 ft | 359 kts | 248° |
| 2026-04-30 14:13 | 42.11993 | -83.92491 | 18323 ft | 355 kts | 248° |
| 2026-04-30 14:13 | 42.10950 | -83.95487 | 18329 ft | 351 kts | 248° |
| 2026-04-30 14:13 | 42.09920 | -83.98449 | 18329 ft | 348 kts | 248° |
| 2026-04-30 14:14 | 42.09040 | -84.00974 | 18336 ft | 345 kts | 248° |
| 2026-04-30 14:14 | 42.08023 | -84.03893 | 18338 ft | 343 kts | 248° |
| 2026-04-30 14:14 | 42.07014 | -84.06789 | 18340 ft | 341 kts | 248° |
| 2026-04-30 14:14 | 42.06009 | -84.09666 | 18340 ft | 339 kts | 248° |
| 2026-04-30 14:15 | 42.04999 | -84.12551 | 18345 ft | 342 kts | 248° |
| 2026-04-30 14:15 | 42.03980 | -84.15461 | 18348 ft | 346 kts | 248° |
| 2026-04-30 14:15 | 42.02961 | -84.18374 | 18353 ft | 342 kts | 248° |
| 2026-04-30 14:15 | 42.01948 | -84.21256 | 18353 ft | 340 kts | 248° |
| 2026-04-30 14:16 | 42.00946 | -84.24116 | 18351 ft | 336 kts | 248° |
| 2026-04-30 14:16 | 41.99951 | -84.26950 | 18352 ft | 335 kts | 248° |
| 2026-04-30 14:16 | 41.99109 | -84.29346 | 18353 ft | 333 kts | 248° |
| 2026-04-30 14:16 | 41.98120 | -84.32150 | 18351 ft | 331 kts | 248° |
| 2026-04-30 14:17 | 41.97138 | -84.34938 | 18351 ft | 330 kts | 248° |
| 2026-04-30 14:17 | 41.96157 | -84.37714 | 18352 ft | 328 kts | 248° |
| 2026-04-30 14:17 | 41.95195 | -84.40442 | 18350 ft | 327 kts | 248° |
| 2026-04-30 14:17 | 41.94222 | -84.43199 | 18348 ft | 326 kts | 248° |
| 2026-04-30 14:18 | 41.93247 | -84.45945 | 18352 ft | 325 kts | 248° |
| 2026-04-30 14:18 | 41.92278 | -84.48684 | 18353 ft | 325 kts | 248° |
| 2026-04-30 14:18 | 41.90342 | -84.54142 | 18353 ft | 323 kts | 248° |
| 2026-04-30 14:19 | 41.88409 | -84.59574 | 18353 ft | 322 kts | 248° |
| 2026-04-30 14:19 | 41.87447 | -84.62288 | 18352 ft | 324 kts | 248° |
| 2026-04-30 14:19 | 41.86470 | -84.65034 | 18359 ft | 329 kts | 248° |
| 2026-04-30 14:20 | 41.85475 | -84.67821 | 18363 ft | 334 kts | 248° |
| 2026-04-30 14:20 | 41.84464 | -84.70649 | 18359 ft | 338 kts | 248° |
| 2026-04-30 14:20 | 41.82410 | -84.76396 | 18369 ft | 345 kts | 248° |
| 2026-04-30 14:21 | 41.81365 | -84.79314 | 18371 ft | 348 kts | 248° |
| 2026-04-30 14:21 | 41.80310 | -84.82253 | 18370 ft | 351 kts | 248° |
| 2026-04-30 14:21 | 41.78180 | -84.88199 | 18370 ft | 356 kts | 248° |
| 2026-04-30 14:22 | 41.77100 | -84.91205 | 18375 ft | 359 kts | 248° |
| 2026-04-30 14:22 | 41.74922 | -84.97249 | 18377 ft | 362 kts | 248° |
| 2026-04-30 14:22 | 41.73824 | -85.00292 | 18375 ft | 363 kts | 248° |
| 2026-04-30 14:23 | 41.71780 | -85.05948 | 18374 ft | 366 kts | 248° |
| 2026-04-30 14:23 | 41.69556 | -85.12098 | 18375 ft | 368 kts | 248° |
| 2026-04-30 14:24 | 41.67313 | -85.18275 | 18377 ft | 370 kts | 248° |
| 2026-04-30 14:24 | 41.66188 | -85.21372 | 18377 ft | 371 kts | 248° |
| 2026-04-30 14:25 | 41.63928 | -85.27578 | 18380 ft | 372 kts | 248° |
| 2026-04-30 14:25 | 41.61660 | -85.33796 | 18383 ft | 373 kts | 248° |
| 2026-04-30 14:26 | 41.59406 | -85.39959 | 18379 ft | 366 kts | 248° |
| 2026-04-30 14:26 | 41.58294 | -85.43002 | 18377 ft | 363 kts | 248° |
| 2026-04-30 14:26 | 41.56084 | -85.49025 | 18384 ft | 359 kts | 248° |
| 2026-04-30 14:27 | 41.54987 | -85.52010 | 18385 ft | 357 kts | 248° |
| 2026-04-30 14:27 | 41.53912 | -85.54939 | 18387 ft | 356 kts | 248° |
| 2026-04-30 14:27 | 41.52823 | -85.57894 | 18388 ft | 354 kts | 248° |
| 2026-04-30 14:28 | 41.51608 | -85.64073 | 18398 ft | 344 kts | 269° |
| 2026-04-30 14:28 | 41.51600 | -85.67254 | 18402 ft | 342 kts | 273° |
| 2026-04-30 14:28 | 41.51711 | -85.70420 | 18401 ft | 341 kts | 274° |
| 2026-04-30 14:28 | 41.51839 | -85.73581 | 18400 ft | 341 kts | 274° |
| 2026-04-30 14:29 | 41.52022 | -85.79889 | 18401 ft | 340 kts | 273° |
| 2026-04-30 14:29 | 41.52125 | -85.85178 | 18404 ft | 340 kts | 273° |
| 2026-04-30 14:30 | 41.52323 | -85.95627 | 17767 ft | 332 kts | 273° |
| 2026-04-30 14:31 | 41.52431 | -86.01190 | 16908 ft | 320 kts | 273° |
| 2026-04-30 14:31 | 41.52520 | -86.07038 | 16003 ft | 311 kts | 273° |
| 2026-04-30 14:31 | 41.52520 | -86.09899 | 15558 ft | 306 kts | 272° |
| 2026-04-30 14:32 | 41.52497 | -86.15514 | 14682 ft | 299 kts | 272° |
| 2026-04-30 14:32 | 41.52485 | -86.18270 | 14254 ft | 296 kts | 273° |
| 2026-04-30 14:32 | 41.52472 | -86.20999 | 13834 ft | 292 kts | 273° |
| 2026-04-30 14:33 | 41.52461 | -86.23695 | 13419 ft | 289 kts | 273° |
| 2026-04-30 14:33 | 41.52431 | -86.29016 | 12603 ft | 284 kts | 273° |
| 2026-04-30 14:33 | 41.52416 | -86.31640 | 12201 ft | 282 kts | 273° |
| 2026-04-30 14:34 | 41.52395 | -86.34245 | 11805 ft | 280 kts | 273° |
| 2026-04-30 14:34 | 41.52382 | -86.36826 | 11416 ft | 276 kts | 274° |
| 2026-04-30 14:34 | 41.52375 | -86.39388 | 11096 ft | 273 kts | 274° |
| 2026-04-30 14:34 | 41.52351 | -86.41875 | 10935 ft | 265 kts | 273° |
| 2026-04-30 14:35 | 41.52323 | -86.45865 | 10687 ft | 253 kts | 274° |
| 2026-04-30 14:35 | 41.52299 | -86.48952 | 10494 ft | 245 kts | 274° |
| 2026-04-30 14:35 | 41.52276 | -86.51199 | 10355 ft | 240 kts | 274° |
| 2026-04-30 14:36 | 41.52260 | -86.53398 | 10222 ft | 235 kts | 274° |
| 2026-04-30 14:36 | 41.52244 | -86.55540 | 10184 ft | 226 kts | 274° |
| 2026-04-30 14:36 | 41.52228 | -86.57612 | 10088 ft | 225 kts | 274° |
| 2026-04-30 14:36 | 41.52220 | -86.59774 | 9938 ft | 246 kts | 274° |
| 2026-04-30 14:37 | 41.52200 | -86.62124 | 9799 ft | 258 kts | 274° |
| 2026-04-30 14:37 | 41.52185 | -86.64514 | 9749 ft | 256 kts | 273° |
| 2026-04-30 14:37 | 41.52165 | -86.66873 | 9752 ft | 255 kts | 273° |
| 2026-04-30 14:37 | 41.52146 | -86.69327 | 9760 ft | 274 kts | 273° |
| 2026-04-30 14:38 | 41.52126 | -86.71962 | 9758 ft | 293 kts | 273° |
| 2026-04-30 14:38 | 41.52100 | -86.74713 | 9736 ft | 292 kts | 272° |
| 2026-04-30 14:38 | 41.52060 | -86.77327 | 9738 ft | 273 kts | 272° |
| 2026-04-30 14:38 | 41.52008 | -86.79817 | 9728 ft | 267 kts | 272° |
| 2026-04-30 14:39 | 41.51964 | -86.82285 | 9720 ft | 265 kts | 273° |
| 2026-04-30 14:39 | 41.51933 | -86.84740 | 9716 ft | 264 kts | 273° |
| 2026-04-30 14:39 | 41.51903 | -86.87183 | 9711 ft | 263 kts | 273° |
| 2026-04-30 14:40 | 41.51842 | -86.92083 | 9382 ft | 271 kts | 273° |
| 2026-04-30 14:40 | 41.51822 | -86.94639 | 9033 ft | 279 kts | 273° |
| 2026-04-30 14:40 | 41.51805 | -86.97260 | 8669 ft | 286 kts | 273° |
| 2026-04-30 14:40 | 41.51791 | -86.99935 | 8298 ft | 291 kts | 273° |
| 2026-04-30 14:41 | 41.51776 | -87.02302 | 7980 ft | 295 kts | 272° |
| 2026-04-30 14:41 | 41.51752 | -87.05057 | 7579 ft | 298 kts | 272° |
| 2026-04-30 14:41 | 41.51720 | -87.07831 | 7179 ft | 301 kts | 272° |
| 2026-04-30 14:41 | 41.51681 | -87.10589 | 6773 ft | 292 kts | 272° |
| 2026-04-30 14:42 | 41.51637 | -87.13260 | 6388 ft | 283 kts | 272° |
| 2026-04-30 14:42 | 41.51671 | -87.15821 | 6254 ft | 266 kts | 282° |
| 2026-04-30 14:42 | 41.52232 | -87.18052 | 6263 ft | 245 kts | 295° |
| 2026-04-30 14:42 | 41.52662 | -87.19403 | 6259 ft | 234 kts | 296° |
| 2026-04-30 14:43 | 41.53332 | -87.21310 | 6227 ft | 222 kts | 299° |
| 2026-04-30 14:43 | 41.54010 | -87.23240 | 6203 ft | 239 kts | 288° |
| 2026-04-30 14:43 | 41.54079 | -87.25522 | 6217 ft | 255 kts | 270° |
| 2026-04-30 14:43 | 41.54118 | -87.27866 | 6215 ft | 251 kts | 281° |
| 2026-04-30 14:44 | 41.54545 | -87.30099 | 6205 ft | 247 kts | 293° |
| 2026-04-30 14:44 | 41.55318 | -87.32132 | 6190 ft | 246 kts | 304° |
| 2026-04-30 14:44 | 41.56388 | -87.33918 | 6065 ft | 248 kts | 315° |
| 2026-04-30 14:44 | 41.57712 | -87.35412 | 5946 ft | 251 kts | 323° |
| 2026-04-30 14:45 | 41.58849 | -87.37117 | 5830 ft | 245 kts | 297° |
| 2026-04-30 14:45 | 41.59452 | -87.39189 | 5716 ft | 238 kts | 291° |
| 2026-04-30 14:45 | 41.59989 | -87.41326 | 5610 ft | 247 kts | 290° |
| 2026-04-30 14:45 | 41.60513 | -87.43538 | 5504 ft | 252 kts | 289° |
| 2026-04-30 14:46 | 41.61029 | -87.45767 | 5384 ft | 248 kts | 289° |
| 2026-04-30 14:46 | 41.61525 | -87.47952 | 5258 ft | 243 kts | 288° |
| 2026-04-30 14:46 | 41.61991 | -87.50097 | 5190 ft | 237 kts | 288° |
| 2026-04-30 14:46 | 41.62503 | -87.52166 | 4966 ft | 235 kts | 298° |
| 2026-04-30 14:47 | 41.63389 | -87.54012 | 4657 ft | 238 kts | 308° |
| 2026-04-30 14:47 | 41.64461 | -87.55719 | 4354 ft | 241 kts | 313° |
| 2026-04-30 14:47 | 41.65595 | -87.57341 | 4059 ft | 244 kts | 314° |
| 2026-04-30 14:47 | 41.66802 | -87.58961 | 3783 ft | 247 kts | 316° |
| 2026-04-30 14:48 | 41.68033 | -87.60586 | 3469 ft | 248 kts | 316° |
| 2026-04-30 14:48 | 41.69266 | -87.62173 | 3168 ft | 245 kts | 314° |
| 2026-04-30 14:48 | 41.70424 | -87.63833 | 2826 ft | 243 kts | 313° |
| 2026-04-30 14:48 | 41.71564 | -87.65493 | 2488 ft | 241 kts | 313° |
| 2026-04-30 14:49 | 41.72696 | -87.67140 | 2159 ft | 240 kts | 313° |
| 2026-04-30 14:49 | 41.73813 | -87.68755 | 1832 ft | 229 kts | 314° |
| 2026-04-30 14:49 | 41.74869 | -87.70261 | 1540 ft | 216 kts | 314° |
| 2026-04-30 14:49 | 41.75881 | -87.71659 | 1292 ft | 199 kts | 316° |
| 2026-04-30 14:50 | 41.77453 | -87.73748 | 839 ft | 135 kts | 315° |
| 2026-04-30 14:50 | 41.78062 | -87.74573 | 632 ft | 112 kts | 315° |
| 2026-04-30 14:51 | 41.78849 | -87.75675 | 628 ft | 29 kts | 326° |
| 2026-04-30 14:51 | 41.79032 | -87.75804 | 627 ft | 25 kts | 347° |
| 2026-04-30 14:51 | 41.79115 | -87.75686 | 627 ft | 10 kts | 84° |
| 2026-04-30 14:52 | 41.79129 | -87.75565 | 627 ft | 16 kts | 85° |
| 2026-04-30 14:52 | 41.79135 | -87.75231 | 627 ft | 0 kts | 88° |
| 2026-04-30 14:52 | 41.79136 | -87.75173 | 636 ft | 15 kts | 89° |
| 2026-04-30 14:53 | 41.79082 | -87.74885 | 631 ft | 17 kts | 136° |
| 2026-04-30 14:53 | 41.78982 | -87.74803 | 627 ft | 18 kts | 175° |
| 2026-04-30 14:54 | 41.78737 | -87.74789 | 627 ft | 17 kts | 177° |
| 2026-04-30 14:54 | 41.78537 | -87.74684 | 639 ft | 17 kts | 133° |
| 2026-04-30 14:55 | 41.78559 | -87.74521 | 631 ft | 10 kts | 41° |
| 2026-04-30 14:55 | 41.78623 | -87.74440 | 630 ft | 15 kts | 44° |
| 2026-04-30 14:55 | 41.78715 | -87.74256 | 635 ft | 0 kts | 89° |
| 2026-04-30 14:56 | 41.78715 | -87.74235 | 627 ft | 1 kts | 90° |
| 2026-04-30 14:56 | 41.78715 | -87.74227 | 627 ft | 0 kts | 90° |